createdAt,value
2023-03-05T00:01:08.620Z,27.23
2023-03-05T00:03:36.992Z,28.55
2023-03-05T00:06:07.407Z,27.10
2023-03-05T00:08:36.028Z,29.02
2023-03-05T00:11:07.046Z,28.23
2023-03-05T00:13:35.904Z,28.75
2023-03-05T00:16:04.711Z,28.85
2023-03-05T00:18:32.870Z,29.80
2023-03-05T00:21:00.861Z,27.27
2023-03-05T00:23:30.492Z,28.85
2023-03-05T00:25:58.588Z,28.60
2023-03-05T00:28:26.634Z,25.58
2023-03-05T00:30:54.754Z,25.77
2023-03-05T00:33:22.838Z,23.63
2023-03-05T00:35:51.038Z,24.38
2023-03-05T00:38:19.170Z,27.42
2023-03-05T00:40:52.139Z,24.85
2023-03-05T00:43:20.223Z,25.23
2023-03-05T00:45:48.224Z,26.05
2023-03-05T00:48:16.253Z,23.92
2023-03-05T00:50:44.407Z,24.33
2023-03-05T00:53:12.447Z,25.27
2023-03-05T00:55:40.559Z,26.23
2023-03-05T00:58:10.392Z,26.02
2023-03-05T01:00:38.582Z,27.25
2023-03-05T01:03:06.802Z,25.92
2023-03-05T01:05:35.047Z,26.48
2023-03-05T01:08:03.241Z,25.30
2023-03-05T01:10:31.562Z,26.40
2023-03-05T01:12:59.589Z,26.27
2023-03-05T01:15:29.035Z,26.20
2023-03-05T01:17:57.063Z,27.77
2023-03-05T01:20:25.173Z,27.02
2023-03-05T01:22:53.987Z,28.08
2023-03-05T01:25:22.139Z,27.90
2023-03-05T01:27:50.216Z,27.63
2023-03-05T01:30:18.457Z,26.92
2023-03-05T01:32:48.017Z,28.00
2023-03-05T01:35:19.328Z,27.85
2023-03-05T01:37:47.524Z,29.92
2023-03-05T01:40:18.578Z,28.60
2023-03-05T01:42:48.193Z,29.45
2023-03-05T01:45:19.475Z,29.67
2023-03-05T01:47:49.110Z,28.38
2023-03-05T01:50:20.908Z,33.58
2023-03-05T01:52:52.580Z,31.30
2023-03-05T01:55:23.692Z,28.88
2023-03-05T01:57:55.247Z,32.05
2023-03-05T02:00:29.087Z,31.27
2023-03-05T02:03:02.763Z,34.40
2023-03-05T02:05:33.399Z,33.28
2023-03-05T02:08:03.355Z,32.28
2023-03-05T02:10:34.135Z,32.08
2023-03-05T02:13:05.262Z,30.48
2023-03-05T02:15:34.537Z,31.98
2023-03-05T02:18:04.126Z,30.90
2023-03-05T02:20:44.664Z,32.80
2023-03-05T02:23:14.084Z,31.23
2023-03-05T02:25:42.208Z,32.78
2023-03-05T02:28:16.561Z,31.77
2023-03-05T02:30:44.720Z,33.40
2023-03-05T02:33:14.370Z,32.95
2023-03-05T02:35:43.804Z,30.10
2023-03-05T02:38:13.870Z,31.55
2023-03-05T02:40:41.902Z,32.17
2023-03-05T02:43:10.573Z,31.45
2023-03-05T02:45:39.051Z,32.33
2023-03-05T02:48:07.824Z,33.17
2023-03-05T02:50:36.658Z,32.03
2023-03-05T02:53:04.798Z,31.75
2023-03-05T02:55:34.178Z,32.58
2023-03-05T02:58:02.548Z,32.33
2023-03-05T03:00:31.222Z,32.42
2023-03-05T03:02:59.293Z,32.65
2023-03-05T03:05:27.543Z,33.10
2023-03-05T03:07:55.557Z,30.92
2023-03-05T03:10:23.826Z,33.88
2023-03-05T03:12:53.185Z,32.63
2023-03-05T03:15:21.357Z,30.58
2023-03-05T03:17:49.729Z,33.83
2023-03-05T03:20:19.064Z,32.38
2023-03-05T03:22:48.087Z,32.20
2023-03-05T03:25:17.493Z,32.97
2023-03-05T03:27:45.683Z,34.50
2023-03-05T03:30:17.335Z,33.88
2023-03-05T03:32:45.572Z,33.45
2023-03-05T03:35:14.693Z,35.00
2023-03-05T03:37:42.782Z,34.92
2023-03-05T03:40:12.587Z,36.28
2023-03-05T03:42:40.623Z,34.72
2023-03-05T03:45:09.813Z,35.40
2023-03-05T03:47:39.396Z,35.95
2023-03-05T03:50:08.342Z,35.60
2023-03-05T03:52:36.471Z,35.08
2023-03-05T03:55:04.875Z,38.60
2023-03-05T03:57:33.525Z,39.90
2023-03-05T04:00:01.814Z,37.80
2023-03-05T04:02:29.909Z,38.20
2023-03-05T04:04:59.337Z,41.75
2023-03-05T04:07:27.592Z,44.80
2023-03-05T04:09:55.872Z,42.38
2023-03-05T04:12:23.909Z,39.40
2023-03-05T04:14:52.033Z,41.00
2023-03-05T04:17:20.034Z,39.88
2023-03-05T04:19:48.104Z,37.83
2023-03-05T04:22:18.832Z,39.28
2023-03-05T04:24:47.144Z,40.55
2023-03-05T04:27:15.136Z,36.22
2023-03-05T04:29:43.276Z,39.17
2023-03-05T04:32:11.501Z,37.95
2023-03-05T04:34:39.780Z,38.85
2023-03-05T04:37:08.691Z,37.63
2023-03-05T04:39:38.317Z,38.85
2023-03-05T04:42:06.760Z,37.28
2023-03-05T04:44:34.733Z,40.03
2023-03-05T04:47:02.660Z,40.60
2023-03-05T04:49:30.984Z,39.75
2023-03-05T04:51:59.028Z,40.90
2023-03-05T04:54:27.214Z,37.83
2023-03-05T04:56:56.717Z,43.97
2023-03-05T04:59:24.949Z,45.38
2023-03-05T05:01:53.003Z,42.90
2023-03-05T05:04:21.208Z,41.92
2023-03-05T05:06:49.170Z,41.58
2023-03-05T05:09:17.235Z,44.08
2023-03-05T05:11:45.368Z,44.50
2023-03-05T05:14:15.015Z,44.72
2023-03-05T05:16:43.120Z,43.83
2023-03-05T05:19:11.552Z,43.65
2023-03-05T05:21:39.936Z,41.15
2023-03-05T05:24:08.800Z,41.25
2023-03-05T05:26:37.092Z,39.83
2023-03-05T05:29:05.530Z,41.80
2023-03-05T05:31:35.127Z,39.88
2023-03-05T05:34:03.283Z,38.78
2023-03-05T05:36:31.376Z,38.35
2023-03-05T05:39:00.015Z,39.47
2023-03-05T05:41:28.091Z,42.53
2023-03-05T05:43:56.215Z,56.65
2023-03-05T05:46:24.897Z,42.47
2023-03-05T05:48:54.358Z,45.95
2023-03-05T05:51:24.399Z,38.50
2023-03-05T05:53:52.534Z,40.60
2023-03-05T05:56:21.258Z,42.50
2023-03-05T05:58:50.384Z,42.95
2023-03-05T06:01:23.608Z,41.17
2023-03-05T06:03:52.530Z,43.65
2023-03-05T06:06:29.387Z,36.72
2023-03-05T06:08:59.181Z,38.92
2023-03-05T06:11:27.174Z,37.63
2023-03-05T06:13:55.359Z,37.50
2023-03-05T06:16:25.862Z,37.17
2023-03-05T06:18:54.398Z,36.97
2023-03-05T06:21:24.617Z,37.47
2023-03-05T06:23:53.140Z,37.70
2023-03-05T06:26:23.307Z,35.50
2023-03-05T06:28:51.344Z,36.78
2023-03-05T06:31:21.963Z,36.28
2023-03-05T06:33:50.741Z,38.95
2023-03-05T06:36:20.785Z,37.78
2023-03-05T06:38:53.110Z,34.72
2023-03-05T06:41:23.228Z,38.35
2023-03-05T06:43:51.794Z,37.22
2023-03-05T06:46:21.646Z,38.78
2023-03-05T06:48:50.480Z,36.70
2023-03-05T06:51:21.208Z,36.58
2023-03-05T06:53:50.908Z,38.55
2023-03-05T06:56:20.251Z,39.53
2023-03-05T06:58:50.648Z,38.45
2023-03-05T07:01:19.726Z,37.00
2023-03-05T07:03:50.919Z,39.08
2023-03-05T07:06:19.807Z,38.50
2023-03-05T07:08:48.015Z,39.85
2023-03-05T07:11:19.612Z,38.47
2023-03-05T07:13:48.764Z,39.53
2023-03-05T07:16:18.677Z,39.20
2023-03-05T07:18:47.203Z,42.35
2023-03-05T07:21:18.515Z,38.90
2023-03-05T07:23:47.029Z,38.22
2023-03-05T07:26:15.404Z,38.75
2023-03-05T07:28:45.195Z,36.40
2023-03-05T07:31:15.052Z,37.60
2023-03-05T07:33:43.181Z,35.63
2023-03-05T07:36:11.949Z,33.92
2023-03-05T07:38:40.193Z,33.63
2023-03-05T07:41:10.452Z,34.67
2023-03-05T07:43:39.006Z,35.65
2023-03-05T07:46:10.127Z,34.20
2023-03-05T07:48:38.383Z,32.10
2023-03-05T07:51:08.680Z,32.53
2023-03-05T07:53:36.954Z,31.27
2023-03-05T07:56:05.520Z,30.63
2023-03-05T07:58:33.746Z,32.33
2023-03-05T08:01:01.756Z,33.13
2023-03-05T08:03:31.255Z,30.95
2023-03-05T08:05:59.326Z,29.75
2023-03-05T08:08:27.356Z,29.05
2023-03-05T08:10:55.337Z,40.38
2023-03-05T08:13:23.380Z,29.67
2023-03-05T08:15:51.559Z,28.20
2023-03-05T08:18:19.635Z,28.00
2023-03-05T08:20:49.072Z,31.10
2023-03-05T08:23:17.129Z,29.17
2023-03-05T08:25:45.212Z,28.50
2023-03-05T08:28:13.406Z,27.80
2023-03-05T08:30:42.432Z,27.95
2023-03-05T08:33:10.398Z,28.40
2023-03-05T08:35:38.494Z,27.15
2023-03-05T08:38:08.061Z,25.45
2023-03-05T08:40:36.029Z,25.55
2023-03-05T08:43:05.861Z,26.08
2023-03-05T08:45:33.862Z,26.77
2023-03-05T08:48:01.918Z,24.38
2023-03-05T08:50:29.973Z,24.52
2023-03-05T08:52:58.134Z,25.35
2023-03-05T08:55:27.654Z,26.10
2023-03-05T08:57:55.702Z,26.48
2023-03-05T09:00:24.303Z,23.83
2023-03-05T09:02:52.507Z,23.63
2023-03-05T09:05:20.790Z,22.23
2023-03-05T09:07:48.973Z,22.83
2023-03-05T09:10:18.386Z,23.13
2023-03-05T09:12:49.245Z,21.58
2023-03-05T09:15:17.496Z,21.20
2023-03-05T09:17:45.566Z,21.48
2023-03-05T09:20:15.449Z,20.23
2023-03-05T09:22:43.662Z,19.95
2023-03-05T09:25:13.196Z,21.10
2023-03-05T09:27:41.267Z,20.95
2023-03-05T09:30:13.630Z,20.45
2023-03-05T09:32:41.901Z,21.05
2023-03-05T09:35:11.196Z,20.35
2023-03-05T09:37:39.299Z,20.25
2023-03-05T09:40:08.737Z,18.85
2023-03-05T09:42:49.554Z,21.20
2023-03-05T09:45:27.691Z,18.73
2023-03-05T09:48:07.538Z,19.10
2023-03-05T09:50:40.302Z,19.40
2023-03-05T09:53:24.630Z,20.30
2023-03-05T09:55:55.161Z,19.80
2023-03-05T09:58:35.331Z,19.75
2023-03-05T10:01:08.034Z,20.65
2023-03-05T10:03:52.602Z,20.15
2023-03-05T10:06:24.056Z,16.90
2023-03-05T10:08:57.141Z,17.33
2023-03-05T10:11:39.530Z,17.42
2023-03-05T10:14:13.889Z,16.77
2023-03-05T10:16:57.363Z,17.73
2023-03-05T10:19:49.976Z,18.50
2023-03-05T10:22:22.043Z,18.75
2023-03-05T10:25:15.172Z,19.25
2023-03-05T10:27:49.553Z,19.02
2023-03-05T10:30:40.105Z,18.75
2023-03-05T10:33:20.418Z,20.70
2023-03-05T10:36:03.330Z,18.55
2023-03-05T10:38:54.824Z,19.52
2023-03-05T10:41:31.013Z,18.98
2023-03-05T10:44:06.181Z,20.73
2023-03-05T10:46:38.103Z,19.60
2023-03-05T10:49:19.031Z,20.25
2023-03-05T10:51:53.106Z,20.23
2023-03-05T10:54:27.066Z,20.37
2023-03-05T10:57:05.767Z,18.90
2023-03-05T10:59:34.051Z,21.52
2023-03-05T11:02:08.896Z,19.73
2023-03-05T11:04:40.699Z,20.95
2023-03-05T11:07:30.476Z,20.75
2023-03-05T11:10:06.614Z,20.33
2023-03-05T11:12:35.669Z,20.05
2023-03-05T11:15:07.174Z,20.25
2023-03-05T11:17:38.649Z,20.60
2023-03-05T11:20:33.925Z,20.30
2023-03-05T11:23:10.673Z,21.45
2023-03-05T11:25:54.158Z,20.92
2023-03-05T11:28:33.031Z,19.75
2023-03-05T11:31:05.658Z,21.08
2023-03-05T11:33:34.111Z,20.17
2023-03-05T11:36:22.383Z,20.98
2023-03-05T11:38:54.649Z,21.02
2023-03-05T11:41:29.557Z,20.80
2023-03-05T11:44:00.196Z,21.70
2023-03-05T11:46:29.245Z,21.75
2023-03-05T11:48:59.270Z,19.48
2023-03-05T11:51:37.667Z,19.92
2023-03-05T11:54:13.321Z,21.08
2023-03-05T11:56:44.887Z,20.55
2023-03-05T11:59:17.988Z,19.63
2023-03-05T12:01:51.322Z,22.20
2023-03-05T12:04:20.664Z,20.10
2023-03-05T12:06:51.775Z,20.67
2023-03-05T12:09:28.435Z,20.27
2023-03-05T12:12:05.885Z,21.70
2023-03-05T12:14:46.270Z,18.08
2023-03-05T12:17:20.198Z,18.48
2023-03-05T12:19:54.971Z,18.20
2023-03-05T12:22:27.342Z,19.20
2023-03-05T12:25:26.768Z,19.27
2023-03-05T12:27:55.014Z,16.35
2023-03-05T12:30:56.391Z,16.50
2023-03-05T12:33:34.107Z,16.58
2023-03-05T12:36:37.195Z,17.60
2023-03-05T12:39:47.727Z,16.20
2023-03-05T12:42:52.732Z,17.20
2023-03-05T12:45:29.852Z,18.05
2023-03-05T12:48:44.041Z,18.35
2023-03-05T12:51:29.303Z,18.75
2023-03-05T12:53:57.596Z,19.10
2023-03-05T12:56:32.890Z,19.70
2023-03-05T12:59:02.991Z,17.15
2023-03-05T13:01:37.374Z,18.58
2023-03-05T13:04:11.099Z,19.25
2023-03-05T13:06:40.323Z,17.50
2023-03-05T13:09:17.236Z,18.50
2023-03-05T13:11:51.145Z,22.23
2023-03-05T13:14:36.269Z,19.80
2023-03-05T13:17:24.943Z,21.05
2023-03-05T13:19:54.032Z,19.60
2023-03-05T13:22:24.648Z,19.85
2023-03-05T13:25:11.965Z,21.80
2023-03-05T13:27:41.659Z,21.02
2023-03-05T13:30:22.867Z,20.02
2023-03-05T13:32:53.013Z,19.10
2023-03-05T13:35:22.687Z,18.75
2023-03-05T13:37:51.096Z,19.67
2023-03-05T13:40:25.000Z,18.92
2023-03-05T13:42:56.738Z,20.27
2023-03-05T13:45:28.344Z,20.63
2023-03-05T13:47:59.503Z,19.58
2023-03-05T13:50:31.031Z,19.05
2023-03-05T13:53:16.936Z,20.65
2023-03-05T13:55:45.175Z,21.13
2023-03-05T13:58:47.522Z,21.05
2023-03-05T14:01:22.925Z,18.90
2023-03-05T14:03:52.491Z,18.25
2023-03-05T14:06:22.931Z,18.33
2023-03-05T14:08:53.314Z,17.35
2023-03-05T14:11:24.249Z,15.35
2023-03-05T14:14:05.143Z,16.30
2023-03-05T14:16:33.828Z,15.57
2023-03-05T14:19:03.613Z,15.48
2023-03-05T14:21:48.230Z,15.43
2023-03-05T14:24:22.857Z,15.55
2023-03-05T14:26:53.909Z,16.58
2023-03-05T14:29:27.786Z,17.13
2023-03-05T14:31:58.748Z,16.17
2023-03-05T14:34:30.736Z,15.38
2023-03-05T14:37:01.127Z,15.68
2023-03-05T14:39:31.359Z,17.55
2023-03-05T14:42:15.856Z,17.20
2023-03-05T14:44:45.307Z,16.57
2023-03-05T14:47:13.422Z,17.02
2023-03-05T14:49:41.347Z,17.73
2023-03-05T14:52:14.749Z,16.40
2023-03-05T14:54:42.970Z,16.65
2023-03-05T14:57:16.545Z,18.20
2023-03-05T14:59:46.061Z,19.13
2023-03-05T15:02:17.349Z,18.85
2023-03-05T15:04:46.938Z,19.50
2023-03-05T15:07:20.945Z,20.23
2023-03-05T15:09:49.236Z,19.50
2023-03-05T15:12:18.504Z,18.45
2023-03-05T15:14:48.001Z,19.00
2023-03-05T15:17:20.346Z,20.27
2023-03-05T15:19:49.146Z,20.80
2023-03-05T15:22:17.995Z,19.58
2023-03-05T15:24:46.140Z,19.45
2023-03-05T15:27:14.648Z,21.92
2023-03-05T15:29:42.780Z,21.15
2023-03-05T15:32:12.432Z,19.98
2023-03-05T15:34:40.436Z,20.60
2023-03-05T15:37:08.746Z,22.98
2023-03-05T15:39:36.891Z,20.80
2023-03-05T15:42:06.438Z,21.15
2023-03-05T15:44:34.695Z,23.65
2023-03-05T15:47:02.795Z,22.35
2023-03-05T15:49:32.231Z,23.50
2023-03-05T15:52:00.774Z,21.73
2023-03-05T15:54:28.884Z,22.45
2023-03-05T15:56:56.985Z,23.60
2023-03-05T15:59:25.238Z,23.23
2023-03-05T16:01:53.718Z,21.60
2023-03-05T16:04:21.853Z,22.60
2023-03-05T16:06:51.765Z,22.27
2023-03-05T16:09:21.773Z,22.75
2023-03-05T16:11:51.622Z,22.70
2023-03-05T16:14:24.290Z,23.15
2023-03-05T16:16:54.815Z,21.15
2023-03-05T16:19:24.535Z,21.90
2023-03-05T16:21:54.038Z,22.73
2023-03-05T16:24:22.246Z,22.55
2023-03-05T16:26:50.243Z,20.88
2023-03-05T16:29:18.421Z,22.85
2023-03-05T16:31:47.688Z,23.55
2023-03-05T16:34:16.333Z,20.63
2023-03-05T16:36:49.072Z,21.65
2023-03-05T16:39:18.493Z,21.38
2023-03-05T16:41:46.682Z,20.30
2023-03-05T16:44:15.056Z,22.00
2023-03-05T16:46:47.206Z,20.20
2023-03-05T16:49:15.454Z,20.63
2023-03-05T16:51:43.494Z,21.05
2023-03-05T16:54:11.528Z,21.40
2023-03-05T16:56:40.897Z,23.10
2023-03-05T16:59:08.840Z,24.33
2023-03-05T17:01:37.053Z,23.90
2023-03-05T17:04:05.289Z,25.50
2023-03-05T17:06:34.844Z,21.15
2023-03-05T17:09:03.771Z,25.33
2023-03-05T17:11:34.592Z,30.67
2023-03-05T17:14:04.510Z,23.02
2023-03-05T17:16:32.709Z,20.85
2023-03-05T17:19:00.742Z,23.05
2023-03-05T17:21:28.907Z,22.42
2023-03-05T17:23:57.000Z,22.88
2023-03-05T17:26:24.990Z,23.33
2023-03-05T17:28:54.502Z,21.23
2023-03-05T17:31:24.160Z,18.05
2023-03-05T17:33:52.358Z,14.45
2023-03-05T17:36:21.949Z,16.83
2023-03-05T17:38:51.091Z,16.17
2023-03-05T17:41:20.094Z,18.50
2023-03-05T17:43:48.106Z,18.33
2023-03-05T17:46:17.218Z,19.85
2023-03-05T17:48:46.800Z,18.67
2023-03-05T17:51:16.788Z,19.08
2023-03-05T17:53:45.160Z,20.80
2023-03-05T17:56:17.217Z,20.45
2023-03-05T17:58:45.302Z,20.50
2023-03-05T18:01:13.269Z,18.92
2023-03-05T18:03:41.307Z,14.50
2023-03-05T18:06:10.669Z,15.57
2023-03-05T18:08:39.486Z,15.50
2023-03-05T18:11:07.592Z,12.02
2023-03-05T18:13:35.667Z,10.27
2023-03-05T18:16:04.038Z,11.35
2023-03-05T18:18:32.041Z,12.63
2023-03-05T18:21:00.176Z,11.13
2023-03-05T18:23:29.652Z,12.30
2023-03-05T18:25:59.462Z,12.35
2023-03-05T18:28:27.775Z,13.80
2023-03-05T18:30:55.814Z,13.63
2023-03-05T18:33:25.947Z,12.45
2023-03-05T18:35:54.740Z,12.15
2023-03-05T18:38:24.261Z,12.82
2023-03-05T18:40:55.260Z,11.75
2023-03-05T18:43:24.785Z,12.93
2023-03-05T18:45:55.696Z,12.43
2023-03-05T18:48:24.291Z,11.65
2023-03-05T18:50:58.521Z,13.10
2023-03-05T18:53:27.297Z,13.00
2023-03-05T18:56:03.178Z,13.25
2023-03-05T18:58:31.470Z,15.48
2023-03-05T19:01:04.367Z,15.68
2023-03-05T19:03:32.683Z,14.75
2023-03-05T19:06:01.817Z,14.23
2023-03-05T19:08:30.124Z,13.85
2023-03-05T19:11:02.878Z,13.80
2023-03-05T19:13:40.839Z,13.60
2023-03-05T19:16:11.404Z,14.65
2023-03-05T19:19:06.375Z,13.77
2023-03-05T19:21:34.400Z,14.05
2023-03-05T19:24:02.470Z,15.15
2023-03-05T19:26:31.816Z,13.82
2023-03-05T19:28:59.764Z,14.20
2023-03-05T19:31:27.888Z,13.65
2023-03-05T19:33:56.007Z,13.85
2023-03-05T19:36:24.490Z,14.27
2023-03-05T19:38:52.586Z,14.63
2023-03-05T19:41:21.840Z,15.02
2023-03-05T19:43:51.255Z,12.80
2023-03-05T19:46:19.547Z,14.15
2023-03-05T19:48:47.718Z,14.35
2023-03-05T19:51:19.152Z,13.65
2023-03-05T19:53:48.189Z,13.75
2023-03-05T19:56:17.454Z,12.75
2023-03-05T19:58:48.906Z,12.45
2023-03-05T20:01:20.156Z,11.88
2023-03-05T20:03:49.883Z,13.20
2023-03-05T20:06:18.666Z,12.82
2023-03-05T20:08:47.199Z,13.00
2023-03-05T20:11:17.048Z,12.60
2023-03-05T20:13:45.649Z,14.02
2023-03-05T20:16:19.812Z,12.13
2023-03-05T20:18:52.609Z,11.90
2023-03-05T20:21:23.222Z,13.23
2023-03-05T20:23:51.661Z,13.15
2023-03-05T20:26:19.998Z,12.90
2023-03-05T20:28:48.600Z,13.30
2023-03-05T20:31:21.202Z,12.50
2023-03-05T20:33:49.552Z,13.50
2023-03-05T20:36:17.804Z,14.45
2023-03-05T20:38:46.392Z,14.55
2023-03-05T20:41:16.717Z,14.73
2023-03-05T20:43:46.605Z,19.17
2023-03-05T20:46:21.589Z,18.42
2023-03-05T20:51:22.514Z,17.00
2023-03-05T20:53:50.917Z,16.95
2023-03-05T20:56:19.007Z,18.30
2023-03-05T20:58:47.039Z,18.00
2023-03-05T21:01:15.142Z,19.92
2023-03-05T21:03:44.698Z,19.33
2023-03-05T21:06:12.724Z,19.23
2023-03-05T21:08:41.030Z,20.15
2023-03-05T21:11:10.167Z,18.75
2023-03-05T21:13:38.950Z,19.10
2023-03-05T21:16:08.539Z,19.73
2023-03-05T21:18:36.730Z,19.38
2023-03-05T21:21:08.118Z,20.02
2023-03-05T21:23:36.645Z,20.70
2023-03-05T21:26:05.183Z,19.48
2023-03-05T21:28:33.433Z,19.05
2023-03-05T21:31:08.465Z,20.10
2023-03-05T21:36:07.315Z,19.55
2023-03-05T21:38:35.357Z,19.63
2023-03-05T21:41:04.019Z,19.02
2023-03-05T21:43:32.634Z,20.63
2023-03-05T21:46:03.125Z,19.83
2023-03-05T21:48:32.000Z,21.17
2023-03-05T21:51:00.504Z,19.65
2023-03-05T21:53:29.834Z,21.17
2023-03-05T21:56:25.478Z,20.63
2023-03-05T21:58:54.056Z,21.17
2023-03-05T22:01:22.707Z,22.63
2023-03-05T22:03:51.248Z,21.83
2023-03-05T22:06:20.058Z,22.40
2023-03-05T22:08:49.993Z,21.35
2023-03-05T22:11:20.792Z,22.90
2023-03-05T22:13:48.842Z,22.60
2023-03-05T22:16:23.757Z,22.92
2023-03-05T22:21:23.033Z,22.23
2023-03-05T22:23:53.443Z,22.38
2023-03-05T22:26:21.560Z,22.75
2023-03-05T22:28:49.679Z,22.63
2023-03-05T22:31:22.332Z,21.90
2023-03-05T22:33:50.898Z,22.23
2023-03-05T22:36:19.373Z,23.80
2023-03-05T22:38:47.615Z,23.27
2023-03-05T22:41:19.724Z,23.17
2023-03-05T22:43:48.912Z,25.92
2023-03-05T22:46:20.063Z,24.13
2023-03-05T22:48:48.210Z,24.77
2023-03-05T22:51:17.336Z,22.63
2023-03-05T22:53:45.987Z,23.65
2023-03-05T22:56:17.489Z,23.77
2023-03-05T22:58:45.693Z,21.77
2023-03-05T23:01:14.776Z,22.13
2023-03-05T23:04:00.490Z,23.08
2023-03-05T23:06:28.783Z,23.27
2023-03-05T23:08:56.886Z,20.60
2023-03-05T23:11:26.209Z,21.35
2023-03-05T23:13:54.162Z,19.30
2023-03-05T23:16:22.172Z,18.17
2023-03-05T23:18:50.270Z,19.10
2023-03-05T23:21:18.350Z,16.83
2023-03-05T23:23:46.512Z,17.08
2023-03-05T23:26:14.491Z,18.95
2023-03-05T23:28:44.069Z,17.35
2023-03-05T23:31:12.231Z,17.33
2023-03-05T23:33:40.284Z,18.10
2023-03-05T23:36:09.697Z,16.50
2023-03-05T23:38:37.861Z,15.50
2023-03-05T23:41:09.475Z,15.65
2023-03-05T23:43:37.689Z,14.57
2023-03-05T23:46:11.679Z,13.73
2023-03-05T23:48:39.908Z,12.85
2023-03-05T23:51:09.916Z,13.38
2023-03-05T23:53:37.856Z,12.43
2023-03-05T23:56:11.241Z,13.32
2023-03-05T23:58:39.806Z,13.00
